Aeroporto :







RITROVATECI SU...

 
LOGIN :

Iscrizione | Disclaimer

   EN    FR    IT 

 









Sommario :    VFR   VFR Marginale   IFR   IFR Intensivo   IFR Molto Intensivo
Visibilità : 
Base nubi : 
>= 8 km
>= 3000ft
5 / 8 km
1000 / 3000 ft
1500m / 5 km
500 / 1000 ft
800 / 1500m
200 / 500 ft
< 800m
< 200 ft
Simboli :   Temporali  Nebbia  Neve Forte  Precipitazioni Forti  Vento > 20 kt






- Altitudine del aeroporto : 288 ft


KLEW - Auburn Lewiston Municipal

ULTIMO METAR :
  • 160756Z AUTO 31013G20KT 10SM CLR M05/M16 A3000 RMK AO2 SLP168 T10501161 FZRANO

METARs OBSOLETI :
  • 160656Z AUTO 31011G17KT 10SM CLR M05/M15 A2997 RMK AO2 SLP157 T10501150 FZRANO
  • 160556Z AUTO 30010KT 10SM CLR M04/M14 A2994 RMK AO2 SLP148 60000 T10441144 10006 21044 51036 FZRANO

TAF N/A



MetMap, La meteo Aeronautica in un colpo d'occhio ! - Copyright ORBIFLY Dicembre 2007 - Disclaimer

ORBIFLY MET'MAP TEAM :

Programmazione e sviluppo : Alexandra Zaïnal
Concezione : Baudouin d'Aumeries
Aiuto per la programmazione : Marc-Olivier Méhu
Supporto tecnico e logistico : Manuel Goepfert
Aiuto per la traduzione : Arnaldo La Scala

Contatto : metmap@orbifly.com




FONTI E CREDITI :

   NOAA